Time;durP1;ratioP1;P1;durP2;ratioP2;P2;SDS_P1;SDS_P2;PMS_P1;PMS_P2;Temp;Humidity;BMP_temperature;BMP_pressure;BME280_temperature;BME280_humidity;BME280_pressure;Samples;Min_cycle;Max_cycle;Signal;HPM_P1;HPM_P2
2022/08/09 00:02:09;;;;;;;5.43;4.93;;;16.30;99.90;;;;;;5034611;28;20509;-66
2022/08/09 00:04:36;;;;;;;5.00;4.50;;;16.20;99.90;;;;;;5034456;28;20837;-66
2022/08/09 00:07:04;;;;;;;5.77;5.27;;;16.20;99.90;;;;;;5034223;28;20503;-66
2022/08/09 00:09:33;;;;;;;5.90;4.77;;;16.20;99.90;;;;;;5034123;28;20482;-68
2022/08/09 00:12:00;;;;;;;5.77;5.27;;;16.20;99.90;;;;;;5034279;28;20533;-66
2022/08/09 00:14:27;;;;;;;5.30;4.80;;;16.20;99.90;;;;;;5034175;28;20437;-66
2022/08/09 00:16:54;;;;;;;5.43;4.27;;;16.20;99.90;;;;;;5033990;28;20524;-66
2022/08/09 00:19:20;;;;;;;5.23;4.73;;;16.20;99.90;;;;;;5034089;28;20531;-67
2022/08/09 00:21:47;;;;;;;8.63;5.27;;;16.10;99.90;;;;;;5033605;28;20572;-66
2022/08/09 00:24:15;;;;;;;6.10;5.50;;;16.00;99.90;;;;;;5033919;28;20530;-67
2022/08/09 00:26:45;;;;;;;7.33;5.57;;;15.90;99.90;;;;;;5033839;28;20442;-66
2022/08/09 00:29:12;;;;;;;8.20;5.77;;;15.80;99.90;;;;;;5033812;28;20476;-67
2022/08/09 00:31:39;;;;;;;6.53;5.93;;;15.90;99.90;;;;;;5032862;28;20478;-66
2022/08/09 00:34:06;;;;;;;7.93;6.03;;;15.80;99.90;;;;;;5033574;28;20480;-66
2022/08/09 00:36:37;;;;;;;6.27;5.30;;;15.80;99.90;;;;;;5033969;28;20492;-66
2022/08/09 00:39:04;;;;;;;7.40;5.73;;;15.70;99.90;;;;;;5033824;28;20798;-66
2022/08/09 00:41:31;;;;;;;6.90;5.83;;;15.80;99.90;;;;;;5033645;28;21339;-66
2022/08/09 00:43:59;;;;;;;9.33;6.60;;;15.80;99.90;;;;;;5033419;28;20520;-67
2022/08/09 00:46:26;;;;;;;6.20;5.70;;;15.80;99.90;;;;;;5033441;28;20548;-66
2022/08/09 00:48:53;;;;;;;6.07;5.37;;;15.80;99.90;;;;;;5033588;28;20481;-66
2022/08/09 00:51:21;;;;;;;6.33;5.63;;;15.70;99.90;;;;;;5033510;28;20543;-66
2022/08/09 00:53:48;;;;;;;6.20;5.50;;;15.70;99.90;;;;;;5033001;28;20430;-66
2022/08/09 00:56:16;;;;;;;5.47;4.97;;;15.70;99.90;;;;;;5032835;28;20480;-66
2022/08/09 00:58:43;;;;;;;7.27;4.80;;;15.60;99.90;;;;;;5033547;28;20525;-66
2022/08/09 01:01:18;;;;;;;6.57;5.57;;;15.60;99.90;;;;;;5033329;28;20473;-66
2022/08/09 01:03:50;;;;;;;5.93;5.27;;;15.60;99.90;;;;;;5033373;28;20527;-66
2022/08/09 01:06:24;;;;;;;5.90;5.33;;;15.60;99.90;;;;;;5032845;28;20442;-66
2022/08/09 01:09:01;;;;;;;7.13;6.27;;;15.50;99.90;;;;;;5032833;28;21004;-66
2022/08/09 01:11:36;;;;;;;7.83;6.03;;;15.40;99.90;;;;;;5033190;28;20449;-66
2022/08/09 01:14:07;;;;;;;5.20;4.70;;;16.30;99.90;;;;;;5032689;28;20480;-66
2022/08/09 01:16:41;;;;;;;5.83;5.30;;;15.40;98.60;;;;;;5032785;28;20445;-66
2022/08/09 01:19:27;;;;;;;5.67;5.00;;;15.50;98.60;;;;;;5033126;28;20915;-66
2022/08/09 01:22:05;;;;;;;5.90;5.40;;;15.50;98.40;;;;;;5032937;28;20489;-71
2022/08/09 01:24:39;;;;;;;5.00;4.50;;;15.60;98.10;;;;;;5032947;28;20537;-66
2022/08/09 01:27:10;;;;;;;7.10;5.60;;;15.40;97.30;;;;;;5032615;28;20506;-66
2022/08/09 01:29:42;;;;;;;9.83;5.50;;;15.30;97.50;;;;;;5033080;28;21005;-66
2022/08/09 01:32:12;;;;;;;7.40;6.40;;;15.30;97.70;;;;;;5032544;28;20437;-66
2022/08/09 01:34:43;;;;;;;12.80;7.30;;;15.30;98.40;;;;;;5032908;28;20597;-66
2022/08/09 01:37:12;;;;;;;6.63;5.50;;;15.30;98.80;;;;;;5033184;28;20847;-66
2022/08/09 01:39:42;;;;;;;10.10;6.40;;;15.20;98.70;;;;;;5032834;28;20525;-66
2022/08/09 01:42:10;;;;;;;8.07;4.70;;;15.20;99.10;;;;;;5032323;28;20522;-66
2022/08/09 01:44:41;;;;;;;7.83;5.00;;;15.10;99.80;;;;;;5032713;28;20521;-66
2022/08/09 01:47:09;;;;;;;7.47;5.63;;;15.10;99.90;;;;;;5032543;28;20466;-66
2022/08/09 01:49:38;;;;;;;6.90;6.20;;;15.10;99.90;;;;;;5032694;28;20597;-66
2022/08/09 01:52:10;;;;;;;6.80;4.80;;;15.10;99.90;;;;;;5032268;28;20521;-66
2022/08/09 01:54:41;;;;;;;7.30;6.70;;;15.10;99.70;;;;;;5032570;28;20434;-66
2022/08/09 01:57:13;;;;;;;7.07;6.37;;;15.10;99.90;;;;;;5032347;28;20488;-66
2022/08/09 01:59:43;;;;;;;7.33;5.30;;;15.00;99.90;;;;;;5032772;28;20492;-67
2022/08/09 02:02:12;;;;;;;9.03;6.33;;;15.00;99.90;;;;;;5032187;28;20560;-66
2022/08/09 02:04:40;;;;;;;7.00;6.40;;;14.90;99.90;;;;;;5032030;28;20442;-66
2022/08/09 02:07:15;;;;;;;7.10;6.40;;;15.00;99.90;;;;;;5032290;28;20481;-66
2022/08/09 02:09:47;;;;;;;6.43;5.73;;;15.00;99.90;;;;;;5032525;28;20856;-67
2022/08/09 02:12:17;;;;;;;6.40;5.80;;;15.00;99.90;;;;;;5032466;28;20525;-66
2022/08/09 02:14:47;;;;;;;6.60;6.00;;;14.90;99.90;;;;;;5032327;28;20920;-66
2022/08/09 02:17:16;;;;;;;5.87;5.00;;;14.80;99.90;;;;;;5032242;28;20532;-67
2022/08/09 02:19:44;;;;;;;6.77;6.07;;;14.80;99.90;;;;;;5032319;28;20528;-66
2022/08/09 02:22:18;;;;;;;8.67;6.37;;;14.70;99.90;;;;;;5031970;28;20499;-66
2022/08/09 02:24:50;;;;;;;6.60;4.87;;;14.70;99.90;;;;;;5032194;28;20489;-67
2022/08/09 02:27:20;;;;;;;4.77;4.37;;;14.60;99.90;;;;;;5032228;28;20520;-66
2022/08/09 02:29:51;;;;;;;7.07;5.47;;;14.50;99.90;;;;;;5032107;28;20449;-66
2022/08/09 02:32:21;;;;;;;6.30;5.70;;;14.40;99.90;;;;;;5032211;28;20473;-66
2022/08/09 02:34:50;;;;;;;6.90;5.70;;;14.30;99.90;;;;;;5031958;28;20628;-66
2022/08/09 02:37:22;;;;;;;6.47;5.77;;;14.20;99.90;;;;;;5031895;28;20434;-66
2022/08/09 02:39:56;;;;;;;6.60;6.00;;;14.20;99.90;;;;;;5032245;28;20438;-66
2022/08/09 02:42:37;;;;;;;6.43;5.83;;;14.20;99.90;;;;;;5032060;28;20485;-66
2022/08/09 02:45:07;;;;;;;11.90;6.93;;;14.20;99.90;;;;;;5031943;28;20473;-67
2022/08/09 02:47:36;;;;;;;7.53;6.27;;;14.20;99.90;;;;;;5031882;28;20504;-66
2022/08/09 02:50:07;;;;;;;6.63;6.03;;;14.30;99.90;;;;;;5032076;28;20859;-66
2022/08/09 02:52:39;;;;;;;5.53;5.03;;;14.20;99.90;;;;;;5031633;28;20525;-66
2022/08/09 02:55:09;;;;;;;8.53;5.20;;;14.20;99.90;;;;;;5033297;28;20525;-66
2022/08/09 02:57:39;;;;;;;5.97;5.47;;;14.20;99.90;;;;;;5035686;28;20529;-66
2022/08/09 03:00:09;;;;;;;6.30;5.13;;;14.20;99.90;;;;;;5035656;28;20469;-66
2022/08/09 03:02:39;;;;;;;6.00;5.50;;;14.20;99.90;;;;;;5035558;28;21197;-66
2022/08/09 03:05:07;;;;;;;6.40;5.80;;;14.20;99.90;;;;;;5034977;28;20529;-67
2022/08/09 03:07:36;;;;;;;6.60;5.40;;;14.20;99.90;;;;;;5035179;28;20473;-66
2022/08/09 03:10:07;;;;;;;10.33;5.40;;;14.20;99.90;;;;;;5035410;28;20525;-66
2022/08/09 03:12:35;;;;;;;6.60;5.50;;;14.20;99.90;;;;;;5035402;28;20847;-66
2022/08/09 03:15:06;;;;;;;6.20;5.70;;;14.20;99.90;;;;;;5034898;28;20537;-66
2022/08/09 03:17:35;;;;;;;5.53;4.90;;;14.20;99.90;;;;;;5035430;28;20991;-66
2022/08/09 03:20:04;;;;;;;5.90;5.30;;;14.20;99.90;;;;;;5034921;28;20503;-66
2022/08/09 03:22:35;;;;;;;5.30;4.23;;;14.20;99.90;;;;;;5035199;28;20481;-66
2022/08/09 03:25:02;;;;;;;6.50;4.57;;;14.10;99.90;;;;;;5035290;28;20477;-66
2022/08/09 03:27:31;;;;;;;7.50;6.40;;;13.90;99.90;;;;;;5034787;28;20477;-66
2022/08/09 03:29:58;;;;;;;6.30;5.70;;;13.80;99.90;;;;;;5034747;28;20438;-65
2022/08/09 03:32:29;;;;;;;5.87;5.30;;;13.70;99.90;;;;;;5034685;28;20833;-66
2022/08/09 03:34:56;;;;;;;5.80;5.27;;;13.60;99.90;;;;;;5034781;28;20469;-66
2022/08/09 03:37:23;;;;;;;6.77;6.03;;;13.60;99.90;;;;;;5034660;28;20522;-66
2022/08/09 03:39:50;;;;;;;6.50;5.90;;;13.70;99.90;;;;;;5034926;28;20478;-69
2022/08/09 03:42:17;;;;;;;5.57;5.17;;;13.70;99.90;;;;;;5034100;28;20565;-66
2022/08/09 03:44:44;;;;;;;5.80;5.17;;;13.70;99.90;;;;;;5034412;28;20531;-66
2022/08/09 03:47:11;;;;;;;6.40;5.80;;;13.60;99.90;;;;;;5034253;28;20552;-66
2022/08/09 03:49:41;;;;;;;5.57;4.90;;;13.50;99.90;;;;;;5034149;28;20449;-66
2022/08/09 03:52:09;;;;;;;5.50;5.10;;;13.50;99.90;;;;;;5034431;28;20449;-66
2022/08/09 03:54:38;;;;;;;7.30;5.97;;;13.50;99.90;;;;;;5034593;28;20473;-68
2022/08/09 03:57:07;;;;;;;5.37;4.87;;;13.40;99.90;;;;;;5034511;28;20442;-67
2022/08/09 03:59:34;;;;;;;6.17;5.60;;;13.40;99.90;;;;;;5034628;28;20518;-67
2022/08/09 04:02:02;;;;;;;5.40;4.50;;;13.40;99.90;;;;;;5034744;28;20528;-67
2022/08/09 04:04:32;;;;;;;5.57;4.97;;;13.50;99.90;;;;;;5034892;28;20442;-67
2022/08/09 04:07:03;;;;;;;5.50;5.00;;;13.50;99.90;;;;;;5034584;28;20491;-67
2022/08/09 04:09:30;;;;;;;6.00;5.40;;;13.50;99.90;;;;;;5034569;28;20438;-67
2022/08/09 04:12:23;;;;;;;5.50;4.93;;;13.50;99.90;;;;;;5034622;28;20473;-67
2022/08/09 04:14:50;;;;;;;5.53;5.03;;;13.50;99.30;;;;;;5034374;28;20971;-67
2022/08/09 04:17:17;;;;;;;5.80;5.07;;;13.50;99.20;;;;;;5034496;28;20474;-68
2022/08/09 04:19:44;;;;;;;6.33;5.10;;;13.60;99.00;;;;;;5034558;28;20470;-68
2022/08/09 04:22:12;;;;;;;7.13;5.17;;;13.60;98.60;;;;;;5034414;28;20529;-67
2022/08/09 04:24:39;;;;;;;5.90;5.10;;;13.60;98.60;;;;;;5034420;28;20492;-67
2022/08/09 04:27:06;;;;;;;5.30;4.80;;;13.60;98.80;;;;;;5034338;28;20477;-67
2022/08/09 04:29:33;;;;;;;5.40;4.90;;;13.60;97.60;;;;;;5033940;28;20478;-67
2022/08/09 04:32:00;;;;;;;5.17;4.67;;;13.50;97.70;;;;;;5034279;28;20529;-67
2022/08/09 04:34:28;;;;;;;5.90;5.30;;;13.40;98.00;;;;;;5034222;28;20442;-67
2022/08/09 04:36:55;;;;;;;6.73;4.80;;;13.30;98.70;;;;;;5034093;28;20450;-72
2022/08/09 04:39:24;;;;;;;7.07;5.70;;;13.30;99.30;;;;;;5033822;28;20521;-68
2022/08/09 04:41:50;;;;;;;5.77;5.17;;;13.30;99.40;;;;;;5033982;28;20524;-67
2022/08/09 04:44:17;;;;;;;4.90;4.40;;;13.30;99.70;;;;;;5033955;28;20572;-67
2022/08/09 04:46:44;;;;;;;5.17;4.77;;;13.30;99.60;;;;;;5033495;28;20473;-67
2022/08/09 04:49:11;;;;;;;5.97;5.30;;;13.40;99.60;;;;;;5034004;28;20485;-67
2022/08/09 04:51:38;;;;;;;6.10;5.17;;;13.40;99.90;;;;;;5030255;28;20497;-68
2022/08/09 04:54:05;;;;;;;5.80;5.30;;;13.40;99.90;;;;;;5032250;28;20472;-67
2022/08/09 04:56:34;;;;;;;5.30;4.80;;;13.40;99.90;;;;;;5021943;28;20545;-68
2022/08/09 04:59:01;;;;;;;7.37;6.03;;;13.50;99.90;;;;;;5011885;28;20474;-67
2022/08/09 05:01:28;;;;;;;8.70;6.70;;;13.50;99.90;;;;;;5012333;28;20933;-67
2022/08/09 05:03:55;;;;;;;6.40;5.87;;;13.60;99.90;;;;;;5012249;28;20482;-69
2022/08/09 05:06:22;;;;;;;7.27;5.70;;;13.70;99.90;;;;;;5011658;28;20525;-67
2022/08/09 05:08:48;;;;;;;6.27;5.67;;;13.80;99.90;;;;;;5011900;28;20485;-67
2022/08/09 05:11:15;;;;;;;6.87;6.27;;;13.70;99.90;;;;;;5011947;28;20543;-69
2022/08/09 05:13:44;;;;;;;5.70;5.20;;;13.80;99.90;;;;;;5012273;28;20840;-68
2022/08/09 05:16:11;;;;;;;6.47;5.90;;;13.90;99.90;;;;;;5012092;28;20470;-67
2022/08/09 05:18:38;;;;;;;10.73;6.33;;;13.80;99.90;;;;;;5011626;28;20442;-67
2022/08/09 05:21:05;;;;;;;10.73;6.73;;;13.80;99.90;;;;;;5011834;28;20535;-67
2022/08/09 05:23:32;;;;;;;9.20;8.30;;;13.90;99.90;;;;;;5011692;28;20482;-69
2022/08/09 05:25:59;;;;;;;9.30;8.50;;;14.00;99.90;;;;;;5011420;28;20443;-67
2022/08/09 05:28:26;;;;;;;7.60;6.93;;;14.00;99.90;;;;;;5011661;28;20442;-67
2022/08/09 05:30:54;;;;;;;7.27;6.60;;;14.10;99.90;;;;;;5011800;28;20477;-67
2022/08/09 05:33:21;;;;;;;8.53;7.33;;;14.10;99.90;;;;;;5011900;28;20522;-68
2022/08/09 05:35:48;;;;;;;7.93;7.13;;;14.10;99.90;;;;;;4989236;28;20977;-73
2022/08/09 05:38:16;;;;;;;7.23;6.50;;;14.20;99.90;;;;;;5008576;28;20446;-68
2022/08/09 05:40:43;;;;;;;7.90;7.20;;;14.30;99.90;;;;;;4999348;28;20533;-72
2022/08/09 05:43:10;;;;;;;7.30;6.60;;;14.40;99.90;;;;;;5005654;28;20985;-67
2022/08/09 05:45:37;;;;;;;9.07;6.67;;;14.60;99.90;;;;;;5004120;28;20448;-69
2022/08/09 05:48:06;;;;;;;7.33;6.73;;;14.70;99.90;;;;;;5010213;28;20453;-67
2022/08/09 05:50:33;;;;;;;7.30;6.60;;;14.80;99.90;;;;;;5004105;28;20478;-68
2022/08/09 05:53:00;;;;;;;8.93;6.60;;;14.90;99.90;;;;;;4998768;28;20968;-68
2022/08/09 05:55:28;;;;;;;6.70;6.10;;;15.10;99.90;;;;;;5002692;28;20489;-68
2022/08/09 05:57:54;;;;;;;7.40;6.70;;;15.30;99.90;;;;;;5009630;28;20450;-68
2022/08/09 06:00:22;;;;;;;8.00;6.27;;;15.40;99.90;;;;;;5006129;28;20527;-68
2022/08/09 06:02:49;;;;;;;6.53;5.93;;;15.50;99.90;;;;;;5002062;28;20471;-68
2022/08/09 06:05:17;;;;;;;6.30;5.70;;;15.70;99.90;;;;;;5009908;28;20446;-69
2022/08/09 06:07:44;;;;;;;10.23;6.37;;;15.80;99.90;;;;;;5004008;28;20518;-68
2022/08/09 06:10:14;;;;;;;6.80;6.20;;;15.90;99.90;;;;;;5008476;28;20549;-67
2022/08/09 06:12:41;;;;;;;6.50;5.90;;;16.10;99.90;;;;;;5003598;28;20443;-68
2022/08/09 06:15:08;;;;;;;5.90;5.30;;;16.20;99.90;;;;;;5008548;28;20529;-68
2022/08/09 06:17:35;;;;;;;7.37;6.63;;;16.40;99.90;;;;;;5009969;28;20538;-67
2022/08/09 06:20:03;;;;;;;6.87;6.30;;;16.50;99.90;;;;;;5006980;28;20533;-68
2022/08/09 06:22:31;;;;;;;7.20;6.60;;;16.60;99.90;;;;;;5009672;28;20470;-68
2022/08/09 06:24:58;;;;;;;7.93;6.20;;;16.70;99.90;;;;;;5001996;28;20439;-69
2022/08/09 06:27:25;;;;;;;6.80;6.10;;;16.90;99.90;;;;;;5007938;28;20542;-67
2022/08/09 06:29:52;;;;;;;10.00;6.80;;;17.00;99.90;;;;;;5010408;28;20470;-68
2022/08/09 06:32:19;;;;;;;6.50;5.90;;;17.20;99.90;;;;;;5010126;28;20516;-68
2022/08/09 06:34:46;;;;;;;5.97;5.47;;;17.30;99.90;;;;;;5009787;28;20538;-70
2022/08/09 06:37:13;;;;;;;6.93;6.33;;;17.40;99.90;;;;;;5012784;28;20474;-68
2022/08/09 06:39:42;;;;;;;8.83;7.20;;;17.60;99.90;;;;;;5010918;28;20538;-68
2022/08/09 06:42:09;;;;;;;5.63;5.20;;;17.70;99.90;;;;;;5012498;28;20447;-68
2022/08/09 06:44:36;;;;;;;6.93;6.23;;;17.80;99.90;;;;;;5012733;28;20490;-68
2022/08/09 06:47:02;;;;;;;5.73;5.23;;;17.90;99.90;;;;;;5013496;28;20505;-72
2022/08/09 06:49:30;;;;;;;8.10;6.43;;;18.00;99.90;;;;;;5009495;28;20470;-67
2022/08/09 06:51:57;;;;;;;5.70;4.83;;;18.10;99.90;;;;;;5014953;28;20525;-67
2022/08/09 06:54:23;;;;;;;5.33;4.83;;;18.20;99.90;;;;;;5015798;28;20917;-67
2022/08/09 06:56:52;;;;;;;5.67;5.00;;;18.40;99.90;;;;;;5015639;28;20964;-68
2022/08/09 06:59:19;;;;;;;6.70;5.37;;;18.60;99.60;;;;;;5015633;28;20446;-67
2022/08/09 07:01:46;;;;;;;5.80;5.20;;;18.70;99.40;;;;;;5015787;28;20485;-66
2022/08/09 07:04:13;;;;;;;7.30;5.37;;;18.90;99.20;;;;;;5013777;28;20599;-67
2022/08/09 07:06:40;;;;;;;10.03;6.73;;;19.00;98.90;;;;;;5015820;28;20493;-67
2022/08/09 07:09:07;;;;;;;6.07;5.27;;;19.10;99.10;;;;;;5015643;28;20482;-66
2022/08/09 07:11:33;;;;;;;4.77;4.27;;;19.20;98.20;;;;;;5015687;28;20486;-66
2022/08/09 07:14:02;;;;;;;5.00;4.60;;;19.30;98.10;;;;;;5015510;28;20474;-66
2022/08/09 07:16:28;;;;;;;7.40;4.93;;;19.40;97.80;;;;;;5015662;28;20801;-66
2022/08/09 07:18:55;;;;;;;5.80;4.73;;;19.50;97.80;;;;;;5014700;28;20954;-66
2022/08/09 07:21:22;;;;;;;4.43;4.03;;;19.60;97.60;;;;;;5015415;28;20489;-66
2022/08/09 07:23:49;;;;;;;6.70;4.40;;;19.80;96.10;;;;;;5015327;28;20491;-67
2022/08/09 07:26:16;;;;;;;4.97;4.57;;;19.90;96.50;;;;;;5015333;28;20536;-67
2022/08/09 07:28:44;;;;;;;5.50;3.87;;;20.00;96.40;;;;;;5015528;28;20444;-67
2022/08/09 07:31:12;;;;;;;4.27;3.73;;;20.10;96.40;;;;;;5015441;28;20812;-66
2022/08/09 07:33:39;;;;;;;5.00;3.70;;;20.30;96.00;;;;;;5015399;28;20476;-66
2022/08/09 07:36:06;;;;;;;6.03;3.90;;;20.40;95.20;;;;;;5015206;28;20520;-66
2022/08/09 07:38:33;;;;;;;4.77;3.80;;;20.50;94.40;;;;;;5015130;28;21056;-67
2022/08/09 07:41:00;;;;;;;6.53;3.00;;;20.70;94.50;;;;;;5014532;28;20537;-66
2022/08/09 07:43:26;;;;;;;4.97;3.20;;;20.90;94.70;;;;;;5015080;28;20837;-67
2022/08/09 07:45:53;;;;;;;6.73;2.90;;;21.00;92.40;;;;;;5014639;28;20972;-67
2022/08/09 07:48:22;;;;;;;3.10;2.60;;;21.20;91.20;;;;;;5015041;28;20477;-68
2022/08/09 07:50:48;;;;;;;3.03;2.73;;;21.40;91.20;;;;;;5015026;28;20534;-66
2022/08/09 07:53:15;;;;;;;3.70;2.63;;;21.50;90.30;;;;;;5014959;28;20493;-67
2022/08/09 07:55:42;;;;;;;2.97;2.47;;;21.60;89.40;;;;;;5014968;28;20877;-66
2022/08/09 07:58:09;;;;;;;5.50;3.27;;;21.70;89.80;;;;;;5014772;28;20474;-66
2022/08/09 08:00:36;;;;;;;3.87;2.43;;;21.80;90.90;;;;;;5014889;28;20513;-66
2022/08/09 08:03:04;;;;;;;6.07;3.10;;;22.00;90.40;;;;;;5014856;28;20478;-66
2022/08/09 08:05:32;;;;;;;5.27;2.80;;;22.20;90.40;;;;;;5014602;28;20505;-66
2022/08/09 08:08:01;;;;;;;3.73;2.60;;;22.30;90.60;;;;;;5014357;28;20478;-65
2022/08/09 08:10:29;;;;;;;4.10;2.60;;;22.50;90.40;;;;;;5014276;28;20438;-66
2022/08/09 08:12:56;;;;;;;5.70;3.03;;;22.60;88.80;;;;;;5014281;28;20578;-66
2022/08/09 08:15:23;;;;;;;3.87;2.90;;;22.80;90.50;;;;;;5014332;28;20447;-66
2022/08/09 08:17:51;;;;;;;3.27;2.73;;;22.90;90.40;;;;;;5014221;28;20985;-66
2022/08/09 08:20:18;;;;;;;3.63;2.80;;;23.00;90.30;;;;;;5014513;28;20435;-66
2022/08/09 08:22:46;;;;;;;3.20;2.90;;;23.20;90.40;;;;;;5014441;28;20470;-66
2022/08/09 08:25:13;;;;;;;3.57;2.40;;;23.40;90.00;;;;;;5014099;28;20522;-66
2022/08/09 08:27:41;;;;;;;4.77;2.37;;;23.50;89.10;;;;;;5014350;28;20876;-66
2022/08/09 08:30:09;;;;;;;3.63;2.23;;;23.70;84.80;;;;;;5014752;28;20494;-66
2022/08/09 08:32:36;;;;;;;3.10;2.43;;;23.80;81.90;;;;;;5014047;28;20489;-66
2022/08/09 08:35:03;;;;;;;5.03;1.90;;;24.00;79.40;;;;;;5014195;28;20493;-65
2022/08/09 08:37:30;;;;;;;3.30;2.27;;;24.10;73.70;;;;;;5014126;28;20482;-66
2022/08/09 08:39:59;;;;;;;4.60;2.03;;;24.20;67.40;;;;;;5014022;28;20450;-66
2022/08/09 08:42:27;;;;;;;3.97;2.00;;;24.30;68.70;;;;;;5013821;28;20443;-66
2022/08/09 08:44:59;;;;;;;3.07;2.07;;;24.50;70.50;;;;;;5013979;28;21080;-66
2022/08/09 08:47:27;;;;;;;5.90;2.03;;;24.60;71.30;;;;;;5014078;28;20481;-66
2022/08/09 08:49:55;;;;;;;4.07;2.10;;;24.70;67.80;;;;;;5013824;28;20454;-65
2022/08/09 08:52:26;;;;;;;3.57;1.93;;;24.70;65.30;;;;;;5013069;28;20474;-65
2022/08/09 08:54:53;;;;;;;2.33;1.50;;;24.80;64.30;;;;;;5013981;28;20419;-66
2022/08/09 08:57:22;;;;;;;5.80;1.87;;;24.90;65.50;;;;;;5013750;28;20498;-68
2022/08/09 08:59:50;;;;;;;4.53;1.90;;;25.00;62.40;;;;;;5014068;28;20482;-66
2022/08/09 09:02:22;;;;;;;3.23;2.00;;;25.10;65.00;;;;;;5013620;28;20533;-66
2022/08/09 09:04:52;;;;;;;2.87;1.87;;;25.10;63.00;;;;;;5013596;28;20840;-66
2022/08/09 09:07:19;;;;;;;8.23;2.27;;;25.20;60.90;;;;;;5013485;28;20598;-67
2022/08/09 09:09:47;;;;;;;3.00;1.57;;;25.30;64.10;;;;;;5013672;28;20538;-66
2022/08/09 09:12:15;;;;;;;4.73;1.90;;;25.30;62.60;;;;;;5013746;28;20443;-66
2022/08/09 09:14:46;;;;;;;2.80;1.77;;;25.50;60.00;;;;;;5013620;28;20529;-67
2022/08/09 09:17:14;;;;;;;4.17;1.70;;;25.50;56.70;;;;;;5013712;28;20801;-66
2022/08/09 09:19:41;;;;;;;3.43;1.90;;;25.60;56.30;;;;;;5013620;28;20446;-65
2022/08/09 09:22:09;;;;;;;4.20;1.87;;;25.60;56.10;;;;;;5013252;28;20434;-66
2022/08/09 09:24:38;;;;;;;2.40;1.23;;;25.70;56.00;;;;;;5013136;28;20573;-66
2022/08/09 09:27:07;;;;;;;3.50;1.90;;;25.70;55.70;;;;;;5013193;28;20446;-65
2022/08/09 09:29:35;;;;;;;3.33;1.97;;;25.90;54.40;;;;;;5013230;28;20434;-65
2022/08/09 09:32:05;;;;;;;2.80;1.70;;;26.00;54.90;;;;;;5013056;28;20995;-65
2022/08/09 09:34:33;;;;;;;4.10;1.40;;;26.00;53.10;;;;;;5013310;28;20908;-65
2022/08/09 09:37:01;;;;;;;3.47;2.03;;;26.10;54.90;;;;;;5013110;28;20443;-65
2022/08/09 09:39:30;;;;;;;3.07;1.73;;;26.20;54.90;;;;;;5012920;28;20439;-65
2022/08/09 09:41:58;;;;;;;3.33;1.90;;;26.30;55.10;;;;;;5013260;28;20529;-65
2022/08/09 09:44:26;;;;;;;3.00;1.80;;;26.30;58.50;;;;;;5012867;28;20489;-65
2022/08/09 09:46:57;;;;;;;3.30;1.53;;;26.40;58.00;;;;;;5012840;28;20498;-65
2022/08/09 09:49:26;;;;;;;3.53;1.83;;;26.40;59.90;;;;;;5013241;28;20942;-65
2022/08/09 09:52:03;;;;;;;2.53;1.50;;;26.50;65.20;;;;;;5012951;28;20443;-66
2022/08/09 09:54:47;;;;;;;2.50;1.77;;;26.50;62.40;;;;;;5012943;28;20446;-65
2022/08/09 09:57:16;;;;;;;2.00;1.40;;;26.70;60.60;;;;;;5013009;28;20787;-66
2022/08/09 09:59:44;;;;;;;5.73;1.57;;;26.70;66.20;;;;;;5012865;28;20443;-66
2022/08/09 10:02:11;;;;;;;3.30;2.00;;;26.80;65.00;;;;;;5012936;28;20489;-65
2022/08/09 10:04:41;;;;;;;6.50;1.50;;;26.90;63.10;;;;;;5015290;28;20495;-65
2022/08/09 10:07:21;;;;;;;3.30;1.43;;;27.00;63.30;;;;;;5016918;28;20450;-65
2022/08/09 10:09:50;;;;;;;2.80;1.60;;;27.10;47.20;;;;;;5016998;28;20438;-67
2022/08/09 10:12:26;;;;;;;2.90;1.67;;;27.20;46.80;;;;;;5017065;28;20426;-66
2022/08/09 10:15:03;;;;;;;3.57;1.77;;;27.20;47.00;;;;;;5016786;28;20933;-65
2022/08/09 10:17:33;;;;;;;6.63;1.63;;;27.20;48.00;;;;;;5016932;28;20482;-65
2022/08/09 10:20:05;;;;;;;3.10;1.80;;;27.20;48.00;;;;;;5016748;28;20443;-65
2022/08/09 10:22:33;;;;;;;2.43;1.60;;;27.30;46.20;;;;;;5016651;28;20500;-65
2022/08/09 10:25:00;;;;;;;4.03;1.40;;;27.40;45.90;;;;;;5016497;28;20537;-66
2022/08/09 10:27:27;;;;;;;2.60;1.30;;;27.40;45.20;;;;;;5016447;28;20529;-69
2022/08/09 10:29:55;;;;;;;2.83;1.70;;;27.40;44.80;;;;;;5016535;28;20481;-66
2022/08/09 10:32:22;;;;;;;3.30;1.93;;;27.40;45.30;;;;;;5016603;28;20891;-65
2022/08/09 10:34:49;;;;;;;2.90;1.53;;;27.50;45.40;;;;;;5016394;28;20478;-65
2022/08/09 10:37:19;;;;;;;3.00;1.87;;;27.60;43.50;;;;;;5016394;28;20500;-65
2022/08/09 10:39:46;;;;;;;3.23;1.60;;;27.70;44.90;;;;;;5016499;28;20445;-65
2022/08/09 10:42:14;;;;;;;3.07;1.63;;;27.70;44.20;;;;;;5016203;28;20442;-66
2022/08/09 10:44:43;;;;;;;4.43;1.87;;;27.80;43.90;;;;;;5016123;28;20482;-65
2022/08/09 10:47:34;;;;;;;2.60;1.60;;;27.90;43.90;;;;;;5016244;28;20557;-65
2022/08/09 10:50:06;;;;;;;3.50;1.70;;;27.90;44.40;;;;;;5016305;28;20445;-65
2022/08/09 10:52:58;;;;;;;5.07;1.90;;;27.90;43.90;;;;;;5016148;28;20485;-65
2022/08/09 10:55:28;;;;;;;4.17;1.73;;;27.90;42.40;;;;;;5013496;28;20471;-65
2022/08/09 10:57:56;;;;;;;3.97;1.70;;;28.00;43.20;;;;;;5011952;28;20482;-65
2022/08/09 11:00:44;;;;;;;3.70;1.80;;;28.10;41.70;;;;;;5011189;28;20438;-67
2022/08/09 11:03:23;;;;;;;4.97;1.70;;;28.00;42.40;;;;;;5008812;28;21356;-66
2022/08/09 11:06:23;;;;;;;4.00;1.70;;;28.00;40.50;;;;;;5010588;28;20492;-65
2022/08/09 11:08:52;;;;;;;2.80;2.03;;;28.10;40.80;;;;;;5013328;28;20449;-66
2022/08/09 11:11:19;;;;;;;3.50;2.07;;;28.10;43.30;;;;;;5013597;28;20485;-66
2022/08/09 11:13:46;;;;;;;5.80;1.73;;;28.20;44.00;;;;;;5013335;28;20481;-70
2022/08/09 11:16:36;;;;;;;3.57;1.80;;;28.20;40.60;;;;;;5010722;28;20514;-66
2022/08/09 11:19:04;;;;;;;3.20;1.60;;;28.10;41.20;;;;;;5008908;28;20466;-67
2022/08/09 11:22:01;;;;;;;2.53;1.57;;;28.20;42.70;;;;;;5014021;28;20505;-66
2022/08/09 11:25:09;;;;;;;4.93;2.20;;;28.30;44.10;;;;;;5012245;28;20530;-65
2022/08/09 11:27:38;;;;;;;3.40;1.80;;;28.40;42.20;;;;;;5012094;28;20529;-66
2022/08/09 11:30:07;;;;;;;2.50;1.57;;;28.50;41.40;;;;;;5013708;28;20563;-65
2022/08/09 11:32:57;;;;;;;3.30;1.80;;;28.50;42.50;;;;;;5007063;28;20533;-73
2022/08/09 11:35:33;;;;;;;2.30;1.20;;;28.60;40.20;;;;;;5010261;28;20435;-68
2022/08/09 11:38:15;;;;;;;3.50;1.93;;;28.60;39.90;;;;;;5009153;28;20542;-66
2022/08/09 11:40:44;;;;;;;2.67;1.70;;;28.60;40.00;;;;;;5007275;28;20462;-66
2022/08/09 11:43:16;;;;;;;4.50;1.60;;;28.60;39.30;;;;;;5007540;28;20439;-66
2022/08/09 11:45:58;;;;;;;2.80;1.90;;;28.50;40.20;;;;;;5002400;28;21270;-66
2022/08/09 11:48:29;;;;;;;5.20;1.63;;;28.50;40.90;;;;;;5013344;28;20430;-65
2022/08/09 11:51:01;;;;;;;2.97;1.40;;;28.50;37.90;;;;;;5012429;28;20902;-66
2022/08/09 11:53:28;;;;;;;3.50;2.27;;;28.40;39.80;;;;;;5013069;28;20439;-65
2022/08/09 11:55:59;;;;;;;4.93;1.73;;;28.50;40.50;;;;;;5011400;28;20953;-67
2022/08/09 11:58:46;;;;;;;2.80;1.73;;;28.50;39.80;;;;;;5013074;28;20447;-65
2022/08/09 12:01:14;;;;;;;2.30;1.60;;;28.70;40.40;;;;;;5011831;28;20439;-68
2022/08/09 12:03:42;;;;;;;2.40;1.70;;;28.80;40.70;;;;;;5013655;28;20478;-65
2022/08/09 12:06:16;;;;;;;4.73;1.93;;;28.90;41.70;;;;;;5012609;28;20514;-71
2022/08/09 12:08:50;;;;;;;3.70;1.60;;;29.00;41.20;;;;;;5009576;28;20489;-67
2022/08/09 12:11:23;;;;;;;3.23;1.50;;;29.10;40.60;;;;;;5011251;28;20510;-67
2022/08/09 12:13:51;;;;;;;4.40;1.70;;;29.20;39.90;;;;;;5013375;28;20494;-67
2022/08/09 12:16:21;;;;;;;2.50;1.40;;;29.30;39.80;;;;;;5008801;28;20531;-67
2022/08/09 12:18:52;;;;;;;2.23;1.40;;;29.30;39.20;;;;;;5012899;28;20473;-66
2022/08/09 12:21:31;;;;;;;3.93;2.20;;;29.40;38.70;;;;;;5010873;28;20510;-66
2022/08/09 12:24:01;;;;;;;1.90;1.10;;;29.30;36.20;;;;;;5012836;28;20430;-66
2022/08/09 12:26:40;;;;;;;6.00;1.50;;;29.20;36.80;;;;;;5005510;28;20514;-65
2022/08/09 12:29:08;;;;;;;7.90;1.73;;;29.30;39.70;;;;;;5011554;28;20438;-66
2022/08/09 12:31:36;;;;;;;4.80;1.90;;;29.20;38.80;;;;;;5011782;28;20447;-66
2022/08/09 12:34:03;;;;;;;3.23;1.70;;;29.20;38.20;;;;;;5012307;28;20468;-66
2022/08/09 12:36:31;;;;;;;3.33;1.67;;;29.20;38.90;;;;;;5009872;28;20442;-72
2022/08/09 12:38:59;;;;;;;3.23;1.70;;;29.30;39.50;;;;;;5011357;28;20446;-66
2022/08/09 12:41:28;;;;;;;2.90;1.37;;;29.30;39.70;;;;;;5011207;28;20774;-65
2022/08/09 12:43:59;;;;;;;6.60;1.50;;;29.30;38.90;;;;;;5012330;28;20434;-66
2022/08/09 12:46:27;;;;;;;3.37;1.60;;;29.40;38.70;;;;;;5010662;28;20490;-65
2022/08/09 12:48:56;;;;;;;3.90;1.60;;;29.40;38.20;;;;;;5010143;28;21005;-66
2022/08/09 12:51:24;;;;;;;3.57;1.80;;;29.40;38.40;;;;;;5010112;28;20442;-65
2022/08/09 12:53:59;;;;;;;5.50;2.03;;;29.40;39.30;;;;;;5011869;28;20439;-68
2022/08/09 12:56:30;;;;;;;3.60;1.60;;;29.50;38.20;;;;;;5008365;28;20488;-66
2022/08/09 12:59:10;;;;;;;3.30;1.87;;;29.50;39.00;;;;;;5011219;28;20439;-66